Time;durP1;ratioP1;P1;durP2;ratioP2;P2;SDS_P1;SDS_P2;PMS_P1;PMS_P2;Temp;Humidity;BMP_temperature;BMP_pressure;BME280_temperature;BME280_humidity;BME280_pressure;Samples;Min_cycle;Max_cycle;Signal;HPM_P1;HPM_P2
2022/09/09 00:04:22;;;;;;;36.33;4.40;;;;;;;21.03;71.37;100468.72;5127005;28;20293;-69
2022/09/09 00:07:44;;;;;;;14.60;3.80;;;;;;;21.14;67.57;100480.56;5085934;28;20284;-69
2022/09/09 00:11:00;;;;;;;11.90;3.33;;;;;;;20.97;66.88;100458.47;5062443;28;20297;-68
2022/09/09 00:14:14;;;;;;;16.70;3.20;;;;;;;21.30;68.17;100466.31;5084324;28;20425;-68
2022/09/09 00:18:03;;;;;;;11.40;3.17;;;;;;;21.49;67.03;100454.63;5085429;28;20319;-69
2022/09/09 00:21:32;;;;;;;10.33;2.97;;;;;;;21.76;67.80;100473.41;5080547;28;20591;-68
2022/09/09 00:25:10;;;;;;;9.63;3.27;;;;;;;21.35;67.40;100463.38;5047518;28;20281;-69
2022/09/09 00:28:39;;;;;;;16.83;3.93;;;;;;;21.35;67.74;100450.09;5071722;28;20272;-68
2022/09/09 00:32:23;;;;;;;24.30;4.47;;;;;;;21.78;67.33;100460.88;5069906;28;20337;-70
2022/09/09 00:36:16;;;;;;;11.63;3.30;;;;;;;22.08;65.81;100462.63;4955903;28;20308;-70
2022/09/09 00:40:15;;;;;;;11.47;3.03;;;;;;;22.10;64.20;100460.75;4981872;28;20290;-69
2022/09/09 00:43:37;;;;;;;18.70;4.10;;;;;;;22.34;65.24;100453.94;4982757;28;20274;-69
2022/09/09 00:47:03;;;;;;;32.08;5.28;;;;;;;22.63;65.36;100456.56;4953696;28;20286;-69
2022/09/09 00:50:38;;;;;;;25.00;3.70;;;;;;;22.88;63.35;100447.00;4950199;28;20225;-69
2022/09/09 00:54:10;;;;;;;24.33;3.90;;;;;;;22.95;61.43;100453.63;4982365;28;20047;-69
2022/09/09 00:57:31;;;;;;;15.33;3.83;;;;;;;23.00;61.16;100448.91;4971132;28;20061;-70
2022/09/09 01:01:47;;;;;;;9.93;3.60;;;;;;;22.88;59.99;100437.19;5167144;27;20704;-68
2022/09/09 01:05:28;;;;;;;8.60;3.23;;;;;;;22.64;58.72;100434.31;5150723;27;20054;-70
2022/09/09 01:08:42;;;;;;;10.50;3.00;;;;;;;22.53;58.53;100431.47;5138593;27;20391;-70
2022/09/09 01:15:48;;;;;;;26.38;3.53;;;;;;;22.56;57.45;100436.59;5148640;27;20042;-70
2022/09/09 01:19:26;;;;;;;31.20;3.83;;;;;;;22.77;57.61;100429.06;5085830;28;20107;-70
2022/09/09 01:22:34;;;;;;;11.47;2.60;;;;;;;22.88;57.91;100425.69;5085073;28;20049;-68
2022/09/09 01:26:10;;;;;;;13.10;2.97;;;;;;;22.88;55.01;100369.72;5016024;28;20285;-70
2022/09/09 01:29:52;;;;;;;6.87;2.00;;;;;;;23.14;51.07;100406.22;4975498;28;20038;-70
2022/09/09 01:36:40;;;;;;;11.77;2.57;;;;;;;23.04;47.80;100413.09;4934861;29;20075;-71
2022/09/09 01:40:10;;;;;;;12.60;2.30;;;;;;;22.99;45.50;100417.88;4957059;29;20272;-69
2022/09/09 01:43:17;;;;;;;7.00;2.50;;;;;;;22.81;45.14;100415.44;4957113;29;20065;-69
2022/09/09 01:46:59;;;;;;;5.90;1.87;;;;;;;22.91;46.02;100420.16;4956118;29;20078;-68
2022/09/09 01:50:27;;;;;;;7.97;1.77;;;;;;;22.92;44.82;100416.53;4954406;29;20063;-67
2022/09/09 01:54:20;;;;;;;16.33;2.50;;;;;;;22.99;45.66;100412.56;4956731;29;20078;-67
2022/09/09 01:57:30;;;;;;;6.57;1.60;;;;;;;23.11;44.13;100421.53;5015742;28;20064;-68
2022/09/09 02:01:13;;;;;;;4.17;1.90;;;;;;;22.97;43.70;100409.97;5014810;28;20081;-67
2022/09/09 02:04:19;;;;;;;10.97;2.40;;;;;;;22.92;43.20;100416.53;4994452;28;20042;-67
2022/09/09 02:07:35;;;;;;;8.87;1.83;;;;;;;22.97;44.48;100409.09;5005225;28;20118;-64
2022/09/09 02:10:19;;;;;;;8.70;1.80;;;;;;;22.92;44.29;100373.91;5079579;28;20090;-65
2022/09/09 02:13:10;;;;;;;8.70;1.90;;;;;;;23.08;43.10;100401.25;5035685;28;20052;-69
2022/09/09 02:15:55;;;;;;;3.53;1.90;;;;;;;23.02;42.90;100423.00;5116396;27;20288;-67
2022/09/09 02:21:48;;;;;;;2.35;1.40;;;;;;;23.16;41.88;100416.75;5133190;27;20539;-67
2022/09/09 02:24:36;;;;;;;8.80;1.80;;;;;;;23.19;41.75;100416.56;5133991;27;20048;-66
2022/09/09 02:27:27;;;;;;;7.63;1.50;;;;;;;22.99;41.70;100380.59;5134320;27;20058;-67
2022/09/09 02:30:15;;;;;;;5.80;1.60;;;;;;;23.18;43.91;100423.69;5091273;28;20127;-69
2022/09/09 02:33:39;;;;;;;5.23;1.57;;;;;;;23.14;44.62;100424.88;5091684;28;20048;-67
2022/09/09 02:36:55;;;;;;;5.80;1.77;;;;;;;23.01;42.98;100423.94;5049616;28;20064;-68
2022/09/09 02:39:44;;;;;;;3.67;1.50;;;;;;;22.94;43.56;100430.59;5091282;28;20043;-65
2022/09/09 02:42:26;;;;;;;6.37;1.70;;;;;;;22.81;43.54;100426.09;5051746;28;20582;-68
2022/09/09 02:45:19;;;;;;;3.10;1.47;;;;;;;22.83;43.68;100418.84;5092506;28;20070;-66
2022/09/09 02:48:08;;;;;;;7.00;1.93;;;;;;;22.83;42.96;100418.84;5091610;28;20294;-67
2022/09/09 02:51:10;;;;;;;17.87;3.20;;;;;;;22.80;42.84;100408.38;5090651;28;20064;-67
2022/09/09 02:54:02;;;;;;;5.05;1.60;;;;;;;22.86;41.75;100427.59;5053682;28;20059;-67
2022/09/09 02:57:05;;;;;;;2.87;1.27;;;;;;;22.82;43.27;100417.13;5091525;28;20193;-66
2022/09/09 02:59:48;;;;;;;7.18;1.75;;;;;;;22.92;42.65;100416.53;5088775;28;20052;-67
2022/09/09 03:02:27;;;;;;;6.47;1.37;;;;;;;22.52;41.61;100364.03;5087497;28;20052;-67
2022/09/09 03:05:13;;;;;;;7.60;1.53;;;;;;;22.85;42.36;100415.22;5091311;28;20630;-66
2022/09/09 03:08:05;;;;;;;7.43;1.87;;;;;;;22.94;42.36;100414.59;5089730;28;20303;-68
2022/09/09 03:10:43;;;;;;;9.87;1.60;;;;;;;22.57;41.11;100374.41;5091167;28;20282;-68
2022/09/09 03:13:26;;;;;;;7.70;1.70;;;;;;;22.77;40.62;100423.72;5090832;28;20055;-68
2022/09/09 03:16:24;;;;;;;2.77;1.73;;;;;;;22.74;40.95;100423.91;5045329;28;20044;-67
2022/09/09 03:19:06;;;;;;;8.40;2.03;;;;;;;22.70;41.65;100431.25;5089429;28;20279;-68
2022/09/09 03:21:44;;;;;;;8.17;1.80;;;;;;;22.52;41.75;100411.13;5040019;28;20309;-66
2022/09/09 03:24:23;;;;;;;7.53;1.57;;;;;;;22.54;41.49;100409.19;5091194;28;20338;-66
2022/09/09 03:27:46;;;;;;;3.40;1.50;;;;;;;22.70;42.08;100412.59;5077467;28;20267;-66
2022/09/09 03:31:02;;;;;;;15.10;2.17;;;;;;;22.75;40.50;100431.81;5088620;28;20274;-67
2022/09/09 03:33:40;;;;;;;3.90;1.47;;;;;;;22.75;42.05;100431.81;5112654;27;20281;-65
2022/09/09 03:37:04;;;;;;;2.23;1.10;;;;;;;22.56;40.48;100399.31;5132789;27;20293;-64
2022/09/09 03:39:55;;;;;;;7.47;1.77;;;;;;;22.64;39.99;100429.00;5106457;27;20047;-66
2022/09/09 03:43:09;;;;;;;3.22;1.23;;;;;;;22.61;40.34;100419.38;5097346;27;20285;-67
2022/09/09 03:45:52;;;;;;;5.20;1.50;;;;;;;22.87;42.92;100430.16;5132638;27;20040;-64
2022/09/09 03:52:14;;;;;;;3.27;1.63;;;;;;;22.83;40.68;100413.50;5133428;27;20269;-66
2022/09/09 03:55:09;;;;;;;5.27;1.67;;;;;;;22.98;40.32;100410.84;5132868;27;20297;-67
2022/09/09 03:57:53;;;;;;;12.40;2.43;;;;;;;23.25;39.57;100430.31;5132478;27;20277;-67
2022/09/09 04:00:35;;;;;;;4.67;1.50;;;;;;;23.45;39.24;100438.81;5096875;27;20078;-66
2022/09/09 04:03:28;;;;;;;5.20;1.87;;;;;;;23.50;37.50;100434.00;5098612;27;20043;-66
2022/09/09 04:06:17;;;;;;;10.73;2.20;;;;;;;23.23;36.47;100408.25;5132342;27;20059;-66
2022/09/09 04:09:11;;;;;;;8.17;1.80;;;;;;;23.45;37.34;100428.13;5132946;27;20204;-67
2022/09/09 04:12:00;;;;;;;4.30;1.70;;;;;;;23.48;38.01;100419.91;5132928;27;20495;-67
2022/09/09 04:14:40;;;;;;;7.33;1.97;;;;;;;23.47;37.49;100407.56;5100763;27;20051;-66
2022/09/09 04:17:30;;;;;;;47.63;5.30;;;;;;;23.41;39.69;100394.63;5131775;27;20057;-65
2022/09/09 04:20:20;;;;;;;95.50;6.83;;;;;;;23.59;39.98;100388.06;5133040;27;20120;-64
2022/09/09 04:23:07;;;;;;;1.83;1.33;;;;;;;23.58;38.24;100389.00;5096550;27;20051;-65
2022/09/09 04:25:55;;;;;;;4.90;1.20;;;;;;;23.67;37.76;100408.88;5131731;27;20081;-65
2022/09/09 04:28:36;;;;;;;13.00;1.80;;;;;;;23.63;37.77;100405.53;5131006;27;20389;-65
2022/09/09 04:31:22;;;;;;;3.37;1.07;;;;;;;23.47;36.79;100403.06;5067411;27;20209;-67
2022/09/09 04:34:05;;;;;;;71.97;7.13;;;;;;;23.47;39.52;100399.56;5132905;27;20094;-65
2022/09/09 04:36:51;;;;;;;22.37;3.27;;;;;;;23.65;39.75;100406.28;5132109;27;20043;-65
2022/09/09 04:39:37;;;;;;;5.37;1.40;;;;;;;23.70;37.65;100419.31;5132390;27;20054;-64
2022/09/09 04:42:25;;;;;;;9.87;2.33;;;;;;;23.67;37.15;100409.72;5101823;27;20047;-66
2022/09/09 04:45:18;;;;;;;18.48;2.30;;;;;;;23.56;37.54;100424.72;5130296;27;20054;-65
2022/09/09 04:48:04;;;;;;;7.93;1.60;;;;;;;23.48;36.13;100425.25;5131480;27;20047;-65
2022/09/09 04:54:11;;;;;;;12.70;2.40;;;;;;;23.36;35.53;100423.41;5077698;28;20310;-64
2022/09/09 04:57:18;;;;;;;13.23;1.50;;;;;;;23.16;34.38;100409.59;5078662;28;20060;-64
2022/09/09 05:00:04;;;;;;;7.43;1.10;;;;;;;23.12;34.11;100436.59;5078304;28;20075;-65
2022/09/09 05:02:52;;;;;;;71.17;6.60;;;;;;;23.11;34.24;100426.88;5033376;28;20032;-65
2022/09/09 05:05:42;;;;;;;5.30;1.30;;;;;;;23.17;34.77;100443.31;5079073;28;20048;-65
2022/09/09 05:08:21;;;;;;;5.43;0.90;;;;;;;23.14;33.38;100435.53;5078253;28;20078;-63
2022/09/09 05:11:03;;;;;;;5.40;1.25;;;;;;;23.09;33.35;100434.97;5048335;28;20253;-65
2022/09/09 05:14:02;;;;;;;92.53;7.40;;;;;;;23.17;34.53;100435.31;5077932;28;20139;-64
2022/09/09 05:16:44;;;;;;;15.10;2.33;;;;;;;23.22;33.19;100441.19;5030698;28;20045;-65
2022/09/09 05:19:22;;;;;;;21.80;2.10;;;;;;;23.17;33.68;100443.31;5076248;28;20137;-64
2022/09/09 05:22:00;;;;;;;9.10;2.63;;;;;;;22.94;32.74;100426.16;4982381;28;20068;-64
2022/09/09 05:24:53;;;;;;;11.67;3.27;;;;;;;22.93;33.28;100455.53;5076800;28;20064;-65
2022/09/09 05:27:37;;;;;;;4.03;0.90;;;;;;;22.71;31.90;100450.75;5078471;28;20079;-65
2022/09/09 05:30:27;;;;;;;26.87;3.63;;;;;;;22.65;33.51;100452.00;5085157;28;20062;-64
2022/09/09 05:33:11;;;;;;;3.03;1.03;;;;;;;22.52;32.60;100453.72;5109081;28;20044;-63
2022/09/09 05:35:50;;;;;;;26.92;2.10;;;;;;;22.46;33.92;100459.44;5132834;28;20056;-64
2022/09/09 05:38:26;;;;;;;11.00;1.77;;;;;;;22.44;33.44;100459.53;5131564;28;20198;-65
2022/09/09 05:41:10;;;;;;;24.30;2.67;;;;;;;22.39;33.31;100465.16;5131136;28;20065;-63
2022/09/09 05:43:46;;;;;;;2.77;1.07;;;;;;;22.26;33.11;100455.34;5131398;28;20281;-63
2022/09/09 05:46:29;;;;;;;12.07;1.33;;;;;;;22.27;35.21;100457.06;5133733;27;20119;-63
2022/09/09 05:49:10;;;;;;;54.23;5.53;;;;;;;22.35;34.43;100471.59;5134230;27;20051;-63
2022/09/09 05:51:50;;;;;;;3.70;1.47;;;;;;;22.30;34.97;100476.38;5134563;27;20281;-65
2022/09/09 05:54:29;;;;;;;3.83;1.33;;;;;;;22.14;34.59;100483.53;5134715;27;20065;-64
2022/09/09 05:57:25;;;;;;;8.25;1.63;;;;;;;21.67;34.80;100423.44;5133430;27;20201;-63
2022/09/09 06:00:29;;;;;;;2.37;0.90;;;;;;;22.06;34.17;100501.78;5134836;27;20048;-64
2022/09/09 06:03:10;;;;;;;29.50;3.27;;;;;;;22.08;34.28;100510.53;5132849;27;20295;-63
2022/09/09 06:05:47;;;;;;;10.70;1.47;;;;;;;21.97;32.89;100509.38;5108742;27;20312;-64
2022/09/09 06:08:38;;;;;;;23.43;3.30;;;;;;;22.01;34.88;100509.19;5134035;27;20324;-63
2022/09/09 06:11:19;;;;;;;6.33;0.80;;;;;;;21.78;33.94;100514.06;5134859;27;20281;-63
2022/09/09 06:13:58;;;;;;;17.27;1.33;;;;;;;21.83;35.03;100530.63;5135112;27;20316;-64
2022/09/09 06:16:34;;;;;;;1.40;0.93;;;;;;;21.85;35.05;100518.09;5116872;27;20266;-64
2022/09/09 06:19:27;;;;;;;6.63;0.90;;;;;;;21.77;34.85;100523.00;5132002;27;20355;-64
2022/09/09 06:22:09;;;;;;;4.67;0.80;;;;;;;21.69;34.83;100526.13;5134205;27;20115;-63
2022/09/09 06:24:57;;;;;;;5.07;1.00;;;;;;;21.59;36.34;100524.06;5134466;27;20563;-64
2022/09/09 06:30:32;;;;;;;8.73;1.13;;;;;;;21.15;34.95;100530.13;5124125;27;20292;-63
2022/09/09 06:33:17;;;;;;;7.67;0.93;;;;;;;21.07;34.16;100527.88;5099616;27;20324;-64
2022/09/09 06:36:21;;;;;;;4.47;0.90;;;;;;;20.76;33.78;100496.84;5134612;27;20288;-64
2022/09/09 06:39:15;;;;;;;4.50;1.00;;;;;;;20.83;34.49;100524.78;5134050;27;20293;-62
2022/09/09 06:42:02;;;;;;;6.00;0.80;;;;;;;20.71;33.09;100541.38;5098514;27;20300;-65
2022/09/09 06:44:39;;;;;;;12.93;1.00;;;;;;;20.63;33.20;100540.00;5133384;27;20350;-64
2022/09/09 06:47:27;;;;;;;7.47;0.70;;;;;;;20.22;32.75;100487.31;5133823;27;20315;-64
2022/09/09 06:50:07;;;;;;;9.27;0.90;;;;;;;20.58;30.63;100557.97;5133862;27;20312;-63
2022/09/09 06:53:04;;;;;;;17.63;1.43;;;;;;;20.51;31.59;100567.16;5133769;27;20284;-64
2022/09/09 06:55:44;;;;;;;6.77;0.80;;;;;;;20.42;31.19;100583.59;5132689;27;20292;-64
2022/09/09 06:58:54;;;;;;;8.43;1.50;;;;;;;20.27;31.98;100590.53;5113564;27;20298;-62
2022/09/09 07:01:51;;;;;;;9.27;0.90;;;;;;;20.19;32.32;100598.91;5111867;27;20455;-63
2022/09/09 07:04:30;;;;;;;6.43;1.20;;;;;;;20.15;32.06;100612.41;5102533;28;20292;-63
2022/09/09 07:10:13;;;;;;;17.93;1.30;;;;;;;20.01;33.10;100621.03;5113186;28;20392;-63
2022/09/09 07:13:15;;;;;;;7.60;0.93;;;;;;;19.93;32.47;100628.53;5112178;28;20875;-63
2022/09/09 07:15:56;;;;;;;5.10;1.13;;;;;;;19.82;33.12;100619.31;5112579;28;20317;-62
2022/09/09 07:18:42;;;;;;;23.53;1.60;;;;;;;19.77;33.04;100623.97;5111326;28;20290;-62
2022/09/09 07:21:22;;;;;;;4.10;0.83;;;;;;;19.70;34.32;100617.25;5112844;28;20282;-63
2022/09/09 07:24:09;;;;;;;7.75;0.88;;;;;;;19.25;34.65;100578.75;5112138;28;20312;-62
2022/09/09 07:26:51;;;;;;;9.87;0.90;;;;;;;19.54;35.67;100622.38;5112099;28;20368;-62
2022/09/09 07:29:43;;;;;;;10.40;1.00;;;;;;;19.46;35.44;100621.03;5112710;28;20282;-63
2022/09/09 07:32:39;;;;;;;13.13;0.87;;;;;;;19.36;36.13;100637.38;5111956;28;20282;-62
2022/09/09 07:35:17;;;;;;;32.70;3.40;;;;;;;19.34;36.87;100641.88;5112494;28;20282;-61
2022/09/09 07:37:56;;;;;;;28.50;2.25;;;;;;;19.33;37.57;100650.75;5111809;28;20294;-61
2022/09/09 07:40:34;;;;;;;8.93;1.00;;;;;;;19.24;37.21;100640.59;5109893;28;20060;-61
2022/09/09 07:43:12;;;;;;;4.60;0.70;;;;;;;19.16;36.83;100642.75;5112857;28;20358;-63
2022/09/09 07:46:08;;;;;;;15.30;1.63;;;;;;;19.12;37.79;100641.16;5111352;28;20338;-61
2022/09/09 07:52:29;;;;;;;18.80;1.27;;;;;;;18.93;39.61;100649.94;5111293;28;20301;-60
2022/09/09 07:55:06;;;;;;;18.17;1.10;;;;;;;18.82;40.58;100644.28;5091290;28;20300;-60
2022/09/09 07:57:50;;;;;;;6.40;0.93;;;;;;;18.51;41.77;100608.53;5076429;28;20289;-60
2022/09/09 08:00:51;;;;;;;23.27;1.20;;;;;;;18.63;42.40;100648.63;5112067;28;20323;-62
2022/09/09 08:03:35;;;;;;;21.27;1.40;;;;;;;18.52;43.37;100651.72;5111163;28;20475;-60
2022/09/09 08:06:11;;;;;;;9.63;1.10;;;;;;;18.43;43.68;100653.00;5077937;28;20333;-61
2022/09/09 08:08:57;;;;;;;12.37;1.30;;;;;;;18.24;44.39;100630.88;5110505;28;20369;-61
2022/09/09 08:11:37;;;;;;;19.97;1.50;;;;;;;18.21;45.21;100647.75;5110793;28;20298;-60
2022/09/09 08:14:17;;;;;;;28.97;8.73;;;;;;;18.08;45.85;100652.69;5111427;28;20294;-61
2022/09/09 08:17:15;;;;;;;23.67;2.10;;;;;;;17.92;46.40;100662.16;5110102;28;20289;-61
2022/09/09 08:19:54;;;;;;;18.80;2.43;;;;;;;17.83;47.07;100673.13;5094160;28;20334;-61
2022/09/09 08:23:00;;;;;;;13.83;1.30;;;;;;;17.64;47.41;100655.28;5110301;28;20328;-60
2022/09/09 08:28:34;;;;;;;19.67;1.70;;;;;;;17.29;48.34;100655.81;5110812;28;20277;-60
2022/09/09 08:31:17;;;;;;;13.03;1.37;;;;;;;17.13;48.70;100656.38;5111260;28;20334;-61
2022/09/09 08:33:59;;;;;;;4.67;1.00;;;;;;;17.12;49.10;100681.06;5111472;28;20281;-61
2022/09/09 08:36:45;;;;;;;6.97;1.00;;;;;;;16.98;49.16;100672.81;5112501;28;20480;-61
2022/09/09 08:39:43;;;;;;;8.00;1.10;;;;;;;16.90;49.56;100677.47;5111670;28;20076;-61
2022/09/09 08:42:49;;;;;;;13.63;1.07;;;;;;;16.75;50.31;100687.66;5095994;28;20290;-60
2022/09/09 08:45:37;;;;;;;10.47;1.97;;;;;;;16.61;51.35;100685.47;5111690;28;20097;-60
2022/09/09 08:48:38;;;;;;;23.53;4.50;;;;;;;16.46;52.98;100690.44;5093062;28;20300;-60
2022/09/09 08:51:43;;;;;;;39.03;16.27;;;;;;;16.24;53.83;100706.94;5109757;28;20281;-59
2022/09/09 08:54:43;;;;;;;28.37;13.20;;;;;;;16.05;54.85;100711.09;5110409;28;20788;-61
2022/09/09 08:57:39;;;;;;;29.95;10.57;;;;;;;15.95;56.02;100716.66;5092883;28;20325;-59
2022/09/09 09:00:16;;;;;;;134.17;10.67;;;;;;;15.80;57.72;100713.63;5111164;28;20047;-59
2022/09/09 09:03:21;;;;;;;47.53;10.20;;;;;;;15.58;59.02;100710.78;5110895;28;20301;-60
2022/09/09 09:06:08;;;;;;;30.10;3.50;;;;;;;15.34;59.96;100709.72;5110400;28;20300;-60
2022/09/09 09:09:07;;;;;;;14.10;4.83;;;;;;;15.22;59.84;100709.16;5093605;28;20310;-59
2022/09/09 09:12:00;;;;;;;8.73;3.47;;;;;;;15.07;59.81;100706.94;5110839;28;20351;-59
2022/09/09 09:14:46;;;;;;;10.23;5.70;;;;;;;14.84;61.12;100723.38;5111507;28;20300;-60
2022/09/09 09:17:40;;;;;;;5.67;2.60;;;;;;;14.62;62.90;100737.06;5111417;28;20582;-60
2022/09/09 09:20:31;;;;;;;6.03;1.30;;;;;;;14.27;64.27;100731.78;5111857;28;20485;-60
2022/09/09 09:23:24;;;;;;;6.17;1.50;;;;;;;13.94;65.08;100750.09;5116420;28;20111;-59
2022/09/09 09:26:22;;;;;;;5.10;1.95;;;;;;;13.66;65.69;100755.09;5114529;28;20603;-59
2022/09/09 09:29:14;;;;;;;3.50;2.27;;;;;;;13.48;66.27;100759.81;5114435;28;20217;-59
2022/09/09 09:31:59;;;;;;;2.22;1.30;;;;;;;13.35;66.78;100761.84;5115788;28;20290;-59
2022/09/09 09:34:39;;;;;;;2.47;1.50;;;;;;;13.31;66.82;100767.16;5067169;28;20120;-58
2022/09/09 09:37:21;;;;;;;7.38;2.08;;;;;;;13.22;66.54;100775.16;5046919;28;20207;-59
2022/09/09 09:40:17;;;;;;;5.40;2.80;;;;;;;13.08;66.77;100778.03;5064426;28;20115;-58
2022/09/09 09:52:30;;;;;;;3.53;1.75;;;;;;;12.83;67.38;100802.09;5037797;28;20068;-59
2022/09/09 09:55:27;;;;;;;9.23;2.80;;;;;;;12.83;67.25;100814.34;5063597;28;20048;-59
2022/09/09 09:58:23;;;;;;;8.48;2.60;;;;;;;12.87;68.15;100822.13;5059409;28;20056;-59
2022/09/09 10:01:04;;;;;;;38.47;4.97;;;;;;;12.89;69.44;100836.09;5062919;28;20044;-59
2022/09/09 10:04:06;;;;;;;42.15;4.95;;;;;;;12.90;70.13;100837.84;5068948;28;20067;-60
2022/09/09 10:06:52;;;;;;;28.67;5.40;;;;;;;12.83;71.74;100846.69;5072598;28;20063;-60
2022/09/09 10:09:40;;;;;;;19.05;4.43;;;;;;;12.76;72.39;100839.81;5073649;28;20045;-59
2022/09/09 10:12:34;;;;;;;33.00;4.53;;;;;;;12.71;72.34;100852.13;5073626;28;20052;-60
2022/09/09 10:15:38;;;;;;;32.47;4.55;;;;;;;12.45;72.29;100829.78;5073114;28;20053;-59
2022/09/09 10:18:37;;;;;;;31.50;3.75;;;;;;;12.63;72.13;100890.69;5064852;28;20056;-59
2022/09/09 10:28:40;;;;;;;68.05;4.85;;;;;;;12.41;72.06;100896.25;5074069;28;20072;-60
2022/09/09 10:31:32;;;;;;;35.30;8.13;;;;;;;12.30;72.73;100892.91;5040322;28;20049;-60
2022/09/09 10:34:46;;;;;;;21.23;11.00;;;;;;;12.13;72.78;100907.97;5057487;28;20052;-59
2022/09/09 10:38:06;;;;;;;14.75;6.15;;;;;;;12.05;73.22;100919.41;5072488;28;20040;-59
2022/09/09 10:44:22;;;;;;;47.15;2.90;;;;;;;11.71;74.56;100933.75;5074295;28;20049;-60
2022/09/09 10:47:24;;;;;;;51.08;3.05;;;;;;;11.52;74.96;100936.53;5073117;28;20041;-59
2022/09/09 10:50:49;;;;;;;13.48;2.08;;;;;;;11.43;74.57;100944.47;5037471;28;20099;-59
2022/09/09 10:53:50;;;;;;;9.27;1.15;;;;;;;11.23;74.20;100926.31;5001942;28;20058;-59
2022/09/09 10:56:46;;;;;;;7.68;1.45;;;;;;;11.32;74.09;100941.09;5071501;28;20102;-60
2022/09/09 10:59:26;;;;;;;3.38;1.00;;;;;;;11.45;74.35;100953.19;5072386;28;20056;-59
2022/09/09 11:02:29;;;;;;;6.38;1.63;;;;;;;11.50;74.20;100946.16;5039508;28;20063;-59
2022/09/09 11:05:36;;;;;;;3.55;1.20;;;;;;;11.29;74.72;100928.91;5071659;28;20073;-60
2022/09/09 11:11:13;;;;;;;7.13;0.90;;;;;;;11.28;74.84;100944.59;5039413;28;21085;-60
2022/09/09 11:14:00;;;;;;;4.90;1.90;;;;;;;11.29;74.30;100962.06;5040332;28;20046;-59
2022/09/09 11:19:51;;;;;;;16.02;3.47;;;;;;;11.10;74.69;100972.63;5039703;28;20243;-60
2022/09/09 11:22:36;;;;;;;9.63;3.90;;;;;;;11.01;74.58;100978.81;5039951;28;20041;-59
2022/09/09 11:25:35;;;;;;;8.23;3.63;;;;;;;10.76;74.64;100936.28;5037518;28;20065;-59
2022/09/09 11:28:34;;;;;;;10.80;5.15;;;;;;;10.87;75.08;100985.00;5009918;28;20049;-59
2022/09/09 11:32:01;;;;;;;10.63;3.33;;;;;;;10.54;75.99;100974.72;5038902;28;20225;-61
2022/09/09 11:34:56;;;;;;;14.02;3.80;;;;;;;10.55;76.78;100988.66;5040112;28;20282;-59
2022/09/09 11:38:00;;;;;;;6.43;2.00;;;;;;;10.47;76.38;100987.84;5034418;28;20061;-61
2022/09/09 11:40:44;;;;;;;4.45;1.88;;;;;;;10.10;76.70;100920.03;5038042;28;20521;-59
2022/09/09 11:43:47;;;;;;;7.53;1.83;;;;;;;10.58;76.82;100991.25;5038236;28;20235;-60
2022/09/09 11:46:35;;;;;;;3.13;1.63;;;;;;;10.57;77.03;100987.78;5004363;28;20059;-58
2022/09/09 11:49:45;;;;;;;5.85;2.80;;;;;;;10.55;76.71;100983.44;5066286;28;20057;-59
2022/09/09 11:52:45;;;;;;;4.20;2.30;;;;;;;10.59;76.29;101006.06;5072636;28;20090;-59
2022/09/09 11:55:43;;;;;;;4.80;2.40;;;;;;;10.57;76.53;100999.97;5072153;28;20061;-58
2022/09/09 11:58:26;;;;;;;53.92;4.82;;;;;;;10.61;77.17;101004.31;5071340;28;20071;-59
2022/09/09 12:01:30;;;;;;;60.25;4.55;;;;;;;10.65;77.34;101011.25;5071396;28;20068;-59
2022/09/09 12:04:37;;;;;;;33.58;3.33;;;;;;;10.70;77.53;101008.63;5071760;28;20205;-59
2022/09/09 12:07:56;;;;;;;8.52;1.20;;;;;;;10.60;78.15;101007.78;5068554;28;20228;-59
2022/09/09 12:10:46;;;;;;;5.43;1.13;;;;;;;10.42;78.64;100997.44;5071257;28;20068;-59
2022/09/09 12:13:37;;;;;;;6.47;1.38;;;;;;;10.51;79.03;101007.84;5070690;28;20064;-59
2022/09/09 12:16:38;;;;;;;4.68;0.93;;;;;;;10.47;79.12;101008.72;5072029;28;20103;-59
2022/09/09 12:19:21;;;;;;;3.42;0.98;;;;;;;10.27;79.40;100988.75;5071073;28;20055;-59
2022/09/09 12:22:14;;;;;;;34.28;2.45;;;;;;;10.38;79.60;101011.38;5070523;28;20092;-59
2022/09/09 12:28:12;;;;;;;54.25;3.30;;;;;;;10.09;79.00;101000.13;5072153;28;20057;-59
2022/09/09 12:31:08;;;;;;;54.45;4.43;;;;;;;10.18;79.12;101030.53;5071533;28;20069;-59
2022/09/09 12:34:13;;;;;;;53.88;3.88;;;;;;;10.10;79.44;101021.88;5071135;28;20512;-61
2022/09/09 12:37:00;;;;;;;42.75;3.97;;;;;;;10.13;79.29;101034.91;5070793;28;20052;-59
2022/09/09 12:39:42;;;;;;;7.43;1.15;;;;;;;10.07;79.42;101037.56;5071571;28;20121;-60
2022/09/09 12:42:27;;;;;;;5.43;1.10;;;;;;;9.93;79.48;101041.06;5071490;28;20358;-59
2022/09/09 12:45:25;;;;;;;7.68;1.38;;;;;;;9.77;80.03;101044.53;5070941;28;20363;-59
2022/09/09 12:48:34;;;;;;;5.85;1.25;;;;;;;9.73;80.54;101055.84;5052714;28;20376;-59
2022/09/09 12:51:29;;;;;;;5.35;1.20;;;;;;;9.68;80.71;101052.38;5070055;28;20372;-59
2022/09/09 12:54:18;;;;;;;8.32;1.33;;;;;;;9.68;80.98;101066.31;5041315;28;20114;-59
2022/09/09 12:57:00;;;;;;;7.28;1.50;;;;;;;9.70;80.93;101061.94;5069335;28;20064;-59
2022/09/09 12:59:41;;;;;;;23.50;2.10;;;;;;;9.74;80.39;101064.56;5051132;28;20079;-59
2022/09/09 13:02:30;;;;;;;8.23;1.50;;;;;;;9.71;80.15;101065.44;5070516;28;20056;-59
2022/09/09 13:05:23;;;;;;;7.97;1.70;;;;;;;9.73;80.21;101066.28;5070770;28;20261;-59
2022/09/09 13:08:21;;;;;;;1.88;1.20;;;;;;;9.62;80.08;101070.66;5070982;28;20075;-59
2022/09/09 13:11:02;;;;;;;4.45;1.00;;;;;;;9.54;80.35;101072.38;5071728;28;20056;-59
2022/09/09 13:13:57;;;;;;;16.70;1.50;;;;;;;9.53;80.23;101070.63;5037793;28;20117;-59
2022/09/09 13:16:47;;;;;;;21.75;1.40;;;;;;;9.52;80.58;101076.72;5069213;28;20053;-60
2022/09/09 13:19:38;;;;;;;2.28;1.63;;;;;;;9.20;80.56;101020.16;5070369;28;20263;-60
2022/09/09 13:22:34;;;;;;;5.70;1.50;;;;;;;9.31;80.10;101049.75;5070600;28;20097;-59
2022/09/09 13:25:27;;;;;;;21.85;2.22;;;;;;;9.35;80.29;101061.91;5070981;28;20076;-59
2022/09/09 13:28:08;;;;;;;27.88;2.50;;;;;;;9.32;80.54;101066.28;5052793;28;20080;-59
2022/09/09 13:30:49;;;;;;;46.08;3.13;;;;;;;9.33;81.06;101074.06;5070937;28;20063;-59
2022/09/09 13:33:27;;;;;;;64.30;3.40;;;;;;;9.24;81.45;101068.88;5069789;28;20322;-59
2022/09/09 13:36:10;;;;;;;40.88;3.03;;;;;;;9.16;81.06;101060.13;5070612;28;20048;-60
2022/09/09 13:39:09;;;;;;;12.18;1.60;;;;;;;8.88;81.05;101023.56;5052203;28;20148;-59
2022/09/09 13:42:07;;;;;;;9.30;1.30;;;;;;;9.29;81.70;101082.78;5025445;28;20080;-62
2022/09/09 13:44:52;;;;;;;17.92;2.17;;;;;;;9.33;81.97;101074.06;5070202;28;20044;-62
2022/09/09 13:47:38;;;;;;;6.40;1.08;;;;;;;9.31;81.48;101069.72;5070673;28;20065;-62
2022/09/09 13:50:44;;;;;;;2.95;1.23;;;;;;;9.27;81.98;101076.69;5070182;28;20068;-62
2022/09/09 13:53:24;;;;;;;2.08;1.20;;;;;;;9.21;81.95;101076.66;5069335;28;20589;-61
2022/09/09 13:56:01;;;;;;;10.30;1.63;;;;;;;9.00;82.07;101043.59;5069595;28;20059;-61
2022/09/09 13:58:45;;;;;;;2.08;0.93;;;;;;;9.10;81.79;101075.78;5068851;28;20051;-61
2022/09/09 14:01:35;;;;;;;10.30;1.30;;;;;;;9.04;82.19;101068.81;5070266;28;20064;-62
2022/09/09 14:04:31;;;;;;;6.45;1.40;;;;;;;9.05;82.19;101084.44;5044200;28;20330;-61
2022/09/09 14:07:22;;;;;;;2.10;1.33;;;;;;;9.04;82.09;101090.53;5070978;28;20202;-61
2022/09/09 14:15:54;;;;;;;;;;;;;;;8.95;81.73;101093.09;5069240;28;20060;-59
2022/09/09 14:18:44;;;;;;;4.20;1.40;;;;;;;8.92;82.02;101093.09;5072431;28;19920;-62
2022/09/09 14:21:28;;;;;;;4.60;1.40;;;;;;;8.81;81.78;101094.78;5073493;28;20254;-59
2022/09/09 14:24:18;;;;;;;6.60;1.48;;;;;;;8.78;82.30;101099.97;5071804;28;20063;-61
2022/09/09 14:26:55;;;;;;;6.25;1.45;;;;;;;8.86;82.29;101108.69;5072541;28;20044;-62
2022/09/09 14:29:44;;;;;;;2.30;1.30;;;;;;;8.81;82.15;101113.03;5073196;28;20060;-62
2022/09/09 14:35:13;;;;;;;7.15;1.70;;;;;;;8.86;82.16;101129.53;5064447;28;20226;-60
2022/09/09 14:37:52;;;;;;;4.70;1.33;;;;;;;8.88;82.08;101127.81;5065479;28;20049;-60
2022/09/09 14:40:36;;;;;;;5.88;1.38;;;;;;;8.95;81.89;101129.59;5016316;28;20057;-60